createdAt,value
2023-03-05T00:02:10.744Z,42.40
2023-03-05T00:04:57.666Z,42.30
2023-03-05T00:07:38.729Z,42.30
2023-03-05T00:10:25.662Z,42.30
2023-03-05T00:13:06.042Z,42.40
2023-03-05T00:15:52.691Z,42.50
2023-03-05T00:18:32.721Z,43.80
2023-03-05T00:21:26.677Z,42.60
2023-03-05T00:24:15.654Z,42.70
2023-03-05T00:27:02.652Z,42.70
2023-03-05T00:29:42.720Z,43.00
2023-03-05T00:32:29.692Z,43.10
2023-03-05T00:35:16.673Z,43.20
2023-03-05T00:37:57.691Z,43.30
2023-03-05T00:40:44.785Z,43.50
2023-03-05T00:43:31.681Z,43.30
2023-03-05T00:46:11.726Z,43.40
2023-03-05T00:49:05.668Z,43.20
2023-03-05T00:51:52.760Z,43.20
2023-03-05T00:54:32.684Z,43.20
2023-03-05T00:57:19.725Z,43.30
2023-03-05T00:59:59.671Z,43.30
2023-03-05T01:02:46.736Z,43.30
2023-03-05T01:05:27.725Z,43.20
2023-03-05T01:08:10.828Z,43.20
2023-03-05T01:10:57.642Z,43.20
2023-03-05T01:13:44.654Z,43.20
2023-03-05T01:16:24.739Z,43.30
2023-03-05T01:19:11.817Z,43.30
2023-03-05T01:21:51.696Z,43.50
2023-03-05T01:24:39.640Z,43.50
2023-03-05T01:27:19.697Z,43.60
2023-03-05T01:30:06.627Z,43.60
2023-03-05T01:32:47.717Z,43.70
2023-03-05T01:35:34.686Z,43.70
2023-03-05T01:38:14.737Z,43.80
2023-03-05T01:41:01.639Z,43.60
2023-03-05T01:43:41.681Z,43.80
2023-03-05T01:46:36.653Z,43.70
2023-03-05T01:49:48.628Z,43.90
2023-03-05T01:52:38.649Z,43.90
2023-03-05T01:55:30.638Z,44.10
2023-03-05T01:58:19.677Z,44.30
2023-03-05T02:01:00.652Z,44.30
2023-03-05T02:03:41.368Z,44.10
2023-03-05T02:06:29.653Z,44.00
2023-03-05T02:09:10.461Z,44.00
2023-03-05T02:11:57.657Z,44.20
2023-03-05T02:14:39.038Z,44.20
2023-03-05T02:17:25.623Z,45.20
2023-03-05T02:20:20.694Z,44.10
2023-03-05T02:23:00.638Z,44.10
2023-03-05T02:25:47.645Z,44.20
2023-03-05T02:28:45.643Z,44.30
2023-03-05T02:31:32.810Z,44.30
2023-03-05T02:34:12.654Z,44.30
2023-03-05T02:36:55.495Z,44.20
2023-03-05T02:39:42.672Z,44.30
2023-03-05T02:42:22.780Z,44.30
2023-03-05T02:45:09.661Z,44.30
2023-03-05T02:48:03.638Z,44.40
2023-03-05T02:50:51.676Z,44.60
2023-03-05T02:53:31.711Z,44.60
2023-03-05T02:56:19.630Z,44.80
2023-03-05T02:59:00.711Z,44.90
2023-03-05T03:01:47.635Z,44.80
2023-03-05T03:04:34.659Z,44.90
2023-03-05T03:07:15.754Z,44.90
2023-03-05T03:10:02.628Z,44.80
2023-03-05T03:12:44.997Z,44.70
2023-03-05T03:15:32.649Z,44.80
2023-03-05T03:18:19.883Z,44.80
2023-03-05T03:20:59.645Z,44.90
2023-03-05T03:23:46.713Z,44.90
2023-03-05T03:26:26.662Z,44.80
2023-03-05T03:29:07.491Z,44.70
2023-03-05T03:31:53.668Z,44.80
2023-03-05T03:34:34.168Z,44.80
2023-03-05T03:37:20.655Z,44.70
2023-03-05T03:40:01.333Z,44.70
2023-03-05T03:42:47.637Z,44.70
2023-03-05T03:45:34.652Z,44.60
2023-03-05T03:48:14.709Z,44.80
2023-03-05T03:51:01.659Z,44.60
2023-03-05T03:53:41.690Z,44.60
2023-03-05T03:56:28.673Z,44.70
2023-03-05T03:59:08.692Z,44.60
2023-03-05T04:01:55.655Z,44.60
2023-03-05T04:04:35.735Z,44.60
2023-03-05T04:07:22.662Z,44.60
2023-03-05T04:10:02.723Z,44.80
2023-03-05T04:12:49.656Z,44.90
2023-03-05T04:15:30.756Z,44.80
2023-03-05T04:18:17.662Z,44.90
2023-03-05T04:20:57.722Z,44.80
2023-03-05T04:23:45.649Z,44.70
2023-03-05T04:26:25.773Z,44.70
2023-03-05T04:29:12.667Z,44.80
2023-03-05T04:31:52.709Z,44.90
2023-03-05T04:34:39.638Z,44.90
2023-03-05T04:37:19.745Z,44.90
2023-03-05T04:40:06.631Z,44.80
2023-03-05T04:42:53.650Z,44.80
2023-03-05T04:45:40.654Z,44.70
2023-03-05T04:48:27.649Z,44.60
2023-03-05T04:51:08.156Z,44.60
2023-03-05T04:53:54.646Z,44.70
2023-03-05T04:56:41.694Z,44.60
2023-03-05T04:59:21.635Z,44.80
2023-03-05T05:02:02.199Z,44.80
2023-03-05T05:04:51.641Z,44.80
2023-03-05T05:07:32.761Z,44.80
2023-03-05T05:10:19.653Z,44.80
2023-03-05T05:13:00.163Z,44.70
2023-03-05T05:15:46.659Z,44.70
2023-03-05T05:18:27.232Z,44.70
2023-03-05T05:21:13.676Z,44.70
2023-03-05T05:24:00.700Z,44.70
2023-03-05T05:26:40.636Z,44.70
2023-03-05T05:29:28.658Z,44.80
2023-03-05T05:32:08.725Z,45.00
2023-03-05T05:34:55.660Z,44.90
2023-03-05T05:37:42.643Z,44.90
2023-03-05T05:40:29.670Z,44.80
2023-03-05T05:43:09.712Z,44.90
2023-03-05T05:45:56.759Z,44.80
2023-03-05T05:48:38.708Z,45.10
2023-03-05T05:51:28.669Z,45.00
2023-03-05T05:54:16.667Z,45.20
2023-03-05T05:56:57.135Z,45.20
2023-03-05T05:59:37.459Z,45.20
2023-03-05T06:02:17.714Z,45.40
2023-03-05T06:05:04.646Z,45.40
2023-03-05T06:07:51.673Z,45.60
2023-03-05T06:10:32.147Z,45.80
2023-03-05T06:13:18.672Z,46.20
2023-03-05T06:16:07.749Z,46.40
2023-03-05T06:18:47.660Z,46.50
2023-03-05T06:21:34.729Z,46.50
2023-03-05T06:24:14.663Z,46.70
2023-03-05T06:26:55.161Z,46.70
2023-03-05T06:29:41.658Z,47.80
2023-03-05T06:32:23.324Z,46.90
2023-03-05T06:35:09.663Z,46.90
2023-03-05T06:37:50.148Z,47.00
2023-03-05T06:40:36.648Z,47.00
2023-03-05T06:43:23.660Z,47.00
2023-03-05T06:46:11.797Z,47.20
2023-03-05T06:49:06.666Z,46.50
2023-03-05T06:51:53.685Z,46.10
2023-03-05T06:54:35.897Z,46.00
2023-03-05T06:57:22.650Z,45.80
2023-03-05T07:00:14.676Z,45.60
2023-03-05T07:02:55.132Z,45.50
2023-03-05T07:05:41.778Z,46.60
2023-03-05T07:08:28.713Z,45.40
2023-03-05T07:11:08.649Z,45.20
2023-03-05T07:13:56.732Z,45.10
2023-03-05T07:16:39.669Z,45.00
2023-03-05T07:19:20.165Z,45.10
2023-03-05T07:22:06.670Z,44.90
2023-03-05T07:24:47.277Z,44.90
2023-03-05T07:27:33.691Z,44.80
2023-03-05T07:30:21.731Z,44.60
2023-03-05T07:33:01.662Z,44.40
2023-03-05T07:35:42.271Z,44.30
2023-03-05T07:38:28.677Z,44.20
2023-03-05T07:41:13.221Z,44.30
2023-03-05T07:44:01.671Z,44.30
2023-03-05T07:46:48.667Z,44.30
2023-03-05T07:49:42.673Z,44.10
2023-03-05T07:52:29.661Z,44.10
2023-03-05T07:55:16.664Z,44.30
2023-03-05T07:58:03.664Z,44.40
2023-03-05T08:00:50.655Z,44.30
2023-03-05T08:03:31.242Z,44.20
2023-03-05T08:06:19.657Z,44.20
2023-03-05T08:09:00.200Z,44.20
2023-03-05T08:11:46.682Z,44.10
2023-03-05T08:14:27.382Z,44.10
2023-03-05T08:17:13.656Z,44.10
2023-03-05T08:20:03.673Z,44.10
2023-03-05T08:22:44.718Z,44.00
2023-03-05T08:25:32.650Z,44.10
2023-03-05T08:28:19.664Z,44.30
2023-03-05T08:31:06.703Z,44.10
2023-03-05T08:33:47.735Z,43.80
2023-03-05T08:36:34.671Z,43.80
2023-03-05T08:39:21.664Z,43.70
2023-03-05T08:42:09.094Z,43.40
2023-03-05T08:44:48.666Z,43.20
2023-03-05T08:47:35.705Z,43.20
2023-03-05T08:50:25.681Z,43.30
2023-03-05T08:53:12.657Z,43.10
2023-03-05T08:56:03.818Z,43.30
2023-03-05T08:58:43.667Z,43.00
2023-03-05T09:01:32.275Z,42.80
2023-03-05T09:04:11.670Z,42.70
2023-03-05T09:06:58.657Z,42.70
2023-03-05T09:09:38.735Z,42.80
2023-03-05T09:12:25.666Z,42.70
2023-03-05T09:15:07.763Z,43.90
2023-03-05T09:17:54.661Z,42.90
2023-03-05T09:20:41.651Z,42.80
2023-03-05T09:23:28.742Z,42.60
2023-03-05T09:26:11.713Z,42.40
2023-03-05T09:28:58.745Z,42.40
2023-03-05T09:31:38.751Z,42.10
2023-03-05T09:34:19.325Z,42.10
2023-03-05T09:37:05.676Z,42.10
2023-03-05T09:39:46.134Z,41.90
2023-03-05T09:42:43.712Z,41.70
2023-03-05T09:45:44.350Z,41.80
2023-03-05T09:48:32.675Z,41.60
2023-03-05T09:51:27.758Z,41.50
2023-03-05T09:54:18.686Z,41.30
2023-03-05T09:57:04.346Z,41.20
2023-03-05T10:00:03.642Z,41.10
2023-03-05T10:02:55.743Z,41.00
2023-03-05T10:06:06.672Z,40.70
2023-03-05T10:09:00.698Z,40.60
2023-03-05T10:11:56.776Z,40.60
2023-03-05T10:14:46.697Z,40.50
2023-03-05T10:17:44.670Z,40.30
2023-03-05T10:20:53.927Z,40.00
2023-03-05T10:24:10.669Z,39.80
2023-03-05T10:27:20.802Z,39.60
2023-03-05T10:30:30.679Z,39.60
2023-03-05T10:33:36.961Z,39.30
2023-03-05T10:36:22.675Z,38.90
2023-03-05T10:39:38.798Z,38.70
2023-03-05T10:42:33.677Z,38.40
2023-03-05T10:45:30.893Z,38.10
2023-03-05T10:48:26.674Z,37.90
2023-03-05T10:51:25.773Z,37.60
2023-03-05T10:54:11.688Z,37.30
2023-03-05T10:57:39.678Z,37.20
2023-03-05T11:00:25.918Z,37.20
2023-03-05T11:03:19.682Z,37.00
2023-03-05T11:06:02.460Z,36.80
2023-03-05T11:08:49.674Z,36.80
2023-03-05T11:11:36.764Z,36.80
2023-03-05T11:14:37.679Z,36.60
2023-03-05T11:17:32.769Z,36.30
2023-03-05T11:20:33.678Z,36.20
2023-03-05T11:23:24.595Z,36.00
2023-03-05T11:26:35.682Z,35.90
2023-03-05T11:29:35.746Z,35.80
2023-03-05T11:32:42.678Z,35.60
2023-03-05T11:35:39.866Z,35.60
2023-03-05T11:38:35.016Z,36.10
2023-03-05T11:41:29.671Z,35.40
2023-03-05T11:44:26.669Z,35.20
2023-03-05T11:47:31.684Z,35.00
2023-03-05T11:50:27.747Z,34.80
2023-03-05T11:53:15.675Z,34.70
2023-03-05T11:56:07.107Z,34.50
2023-03-05T11:59:10.686Z,35.40
2023-03-05T12:01:54.303Z,34.20
2023-03-05T12:04:41.692Z,34.10
2023-03-05T12:07:48.286Z,34.10
2023-03-05T12:10:37.661Z,33.90
2023-03-05T12:13:29.143Z,33.90
2023-03-05T12:16:18.717Z,33.60
2023-03-05T12:19:20.285Z,33.40
2023-03-05T12:22:07.686Z,33.40
2023-03-05T12:24:55.754Z,33.20
2023-03-05T12:27:41.692Z,33.30
2023-03-05T12:30:40.998Z,33.20
2023-03-05T12:33:55.682Z,33.20
2023-03-05T12:36:37.635Z,33.00
2023-03-05T12:39:58.670Z,33.20
2023-03-05T12:42:43.813Z,33.40
2023-03-05T12:45:30.711Z,33.40
2023-03-05T12:48:12.432Z,33.20
2023-03-05T12:50:59.705Z,33.30
2023-03-05T12:53:40.177Z,33.10
2023-03-05T12:56:31.709Z,32.90
2023-03-05T12:59:19.686Z,33.00
2023-03-05T13:02:10.740Z,32.70
2023-03-05T13:04:59.689Z,32.70
2023-03-05T13:07:39.735Z,32.60
2023-03-05T13:10:34.715Z,32.70
2023-03-05T13:13:21.814Z,32.70
2023-03-05T13:16:08.787Z,32.70
2023-03-05T13:18:51.736Z,32.70
2023-03-05T13:21:39.669Z,32.60
2023-03-05T13:24:25.778Z,32.70
2023-03-05T13:27:36.671Z,32.50
2023-03-05T13:30:35.729Z,32.30
2023-03-05T13:33:19.019Z,32.30
2023-03-05T13:36:05.686Z,32.20
2023-03-05T13:38:53.729Z,32.30
2023-03-05T13:41:35.679Z,32.20
2023-03-05T13:44:22.074Z,32.20
2023-03-05T13:47:38.681Z,32.10
2023-03-05T13:50:57.685Z,32.10
2023-03-05T13:53:44.681Z,32.30
2023-03-05T13:56:27.780Z,32.30
2023-03-05T13:59:24.689Z,32.50
2023-03-05T14:02:07.767Z,32.40
2023-03-05T14:04:54.746Z,32.50
2023-03-05T14:07:34.756Z,32.50
2023-03-05T14:10:42.680Z,32.50
2023-03-05T14:13:33.571Z,32.50
2023-03-05T14:16:39.699Z,32.60
2023-03-05T14:19:50.676Z,32.70
2023-03-05T14:22:42.693Z,32.70
2023-03-05T14:25:44.741Z,32.70
2023-03-05T14:28:35.694Z,32.80
2023-03-05T14:31:23.737Z,32.90
2023-03-05T14:34:13.701Z,32.70
2023-03-05T14:36:55.767Z,32.80
2023-03-05T14:39:55.679Z,33.00
2023-03-05T14:42:49.690Z,34.10
2023-03-05T14:45:36.756Z,33.00
2023-03-05T14:48:18.732Z,33.20
2023-03-05T14:51:01.141Z,33.30
2023-03-05T14:53:59.713Z,34.40
2023-03-05T14:56:46.694Z,33.40
2023-03-05T14:59:26.830Z,33.50
2023-03-05T15:02:29.764Z,33.60
2023-03-05T15:05:09.778Z,33.70
2023-03-05T15:07:57.711Z,33.80
2023-03-05T15:10:37.742Z,33.80
2023-03-05T15:13:25.734Z,33.80
2023-03-05T15:16:05.785Z,33.90
2023-03-05T15:18:52.695Z,33.90
2023-03-05T15:21:32.755Z,33.80
2023-03-05T15:24:21.682Z,33.80
2023-03-05T15:27:03.194Z,33.80
2023-03-05T15:29:49.708Z,33.90
2023-03-05T15:32:30.727Z,33.90
2023-03-05T15:35:17.829Z,34.00
2023-03-05T15:37:58.414Z,33.80
2023-03-05T15:40:44.689Z,34.00
2023-03-05T15:43:32.696Z,34.10
2023-03-05T15:46:13.252Z,34.20
2023-03-05T15:48:59.693Z,34.20
2023-03-05T15:51:53.703Z,34.20
2023-03-05T15:54:35.635Z,34.30
2023-03-05T15:57:24.699Z,34.30
2023-03-05T16:00:13.711Z,34.30
2023-03-05T16:02:53.834Z,34.40
2023-03-05T16:05:42.701Z,34.40
2023-03-05T16:08:29.693Z,34.40
2023-03-05T16:11:16.700Z,34.50
2023-03-05T16:13:56.879Z,34.50
2023-03-05T16:16:44.687Z,34.50
2023-03-05T16:19:25.764Z,34.60
2023-03-05T16:22:12.703Z,34.70
2023-03-05T16:24:52.770Z,34.70
2023-03-05T16:27:40.712Z,34.70
2023-03-05T16:30:21.790Z,34.70
2023-03-05T16:33:08.722Z,34.80
2023-03-05T16:35:48.812Z,34.90
2023-03-05T16:38:35.708Z,34.90
2023-03-05T16:41:24.221Z,34.80
2023-03-05T16:44:05.002Z,34.90
2023-03-05T16:46:55.794Z,34.90
2023-03-05T16:49:49.696Z,34.90
2023-03-05T16:52:37.707Z,35.00
2023-03-05T16:55:24.697Z,35.10
2023-03-05T16:58:11.774Z,35.10
2023-03-05T17:00:51.739Z,35.10
2023-03-05T17:03:38.719Z,35.10
2023-03-05T17:06:26.730Z,35.10
2023-03-05T17:09:14.711Z,35.10
2023-03-05T17:11:54.770Z,35.10
2023-03-05T17:14:41.710Z,35.00
2023-03-05T17:17:21.786Z,35.10
2023-03-05T17:20:08.703Z,35.10
2023-03-05T17:22:48.808Z,35.10
2023-03-05T17:25:35.716Z,35.10
2023-03-05T17:28:15.774Z,35.20
2023-03-05T17:31:06.710Z,35.20
2023-03-05T17:33:54.690Z,35.20
2023-03-05T17:36:41.730Z,35.20
2023-03-05T17:39:28.721Z,35.20
2023-03-05T17:42:09.171Z,35.20
2023-03-05T17:44:55.722Z,35.10
2023-03-05T17:47:42.702Z,35.10
2023-03-05T17:50:22.797Z,35.20
2023-03-05T17:53:10.714Z,35.20
2023-03-05T17:55:50.827Z,36.10
2023-03-05T17:58:37.710Z,35.20
2023-03-05T18:01:17.773Z,35.20
2023-03-05T18:04:04.785Z,35.30
2023-03-05T18:06:51.710Z,35.50
2023-03-05T18:09:32.213Z,35.60
2023-03-05T18:12:18.698Z,35.70
2023-03-05T18:15:05.702Z,35.70
2023-03-05T18:17:52.778Z,35.70
2023-03-05T18:20:38.733Z,35.70
2023-03-05T18:23:25.701Z,35.70
2023-03-05T18:26:12.717Z,35.80
2023-03-05T18:28:59.714Z,35.90
2023-03-05T18:31:40.215Z,36.00
2023-03-05T18:34:27.699Z,36.10
2023-03-05T18:37:14.712Z,36.10
2023-03-05T18:40:01.701Z,36.30
2023-03-05T18:42:42.313Z,36.40
2023-03-05T18:45:30.788Z,36.50
2023-03-05T18:48:11.692Z,36.60
2023-03-05T18:50:58.716Z,36.80
2023-03-05T18:53:39.191Z,37.70
2023-03-05T18:56:25.702Z,36.70
2023-03-05T18:59:06.203Z,36.70
2023-03-05T19:01:52.705Z,37.00
2023-03-05T19:04:33.220Z,37.10
2023-03-05T19:07:19.722Z,37.20
2023-03-05T19:10:09.992Z,37.10
2023-03-05T19:13:01.712Z,37.20
2023-03-05T19:15:48.727Z,37.00
2023-03-05T19:18:28.828Z,37.00
2023-03-05T19:21:16.712Z,37.00
2023-03-05T19:24:03.718Z,37.70
2023-03-05T19:26:44.294Z,37.00
2023-03-05T19:29:30.735Z,37.00
2023-03-05T19:32:14.290Z,37.00
2023-03-05T19:35:01.721Z,37.00
2023-03-05T19:37:48.979Z,36.90
2023-03-05T19:40:28.728Z,36.90
2023-03-05T19:43:09.286Z,37.00
2023-03-05T19:45:55.729Z,37.00
2023-03-05T19:48:44.726Z,37.00
2023-03-05T19:51:32.764Z,37.10
2023-03-05T19:54:12.720Z,37.00
2023-03-05T19:57:00.790Z,37.00
2023-03-05T19:59:40.729Z,36.90
2023-03-05T20:02:21.939Z,36.90
2023-03-05T20:05:08.706Z,36.90
2023-03-05T20:07:49.202Z,36.90
2023-03-05T20:10:35.688Z,36.90
2023-03-05T20:13:22.717Z,37.10
2023-03-05T20:16:09.708Z,37.10
2023-03-05T20:19:01.723Z,37.10
2023-03-05T20:21:52.723Z,37.00
2023-03-05T20:24:33.237Z,37.00
2023-03-05T20:27:19.726Z,37.00
2023-03-05T20:30:06.799Z,38.00
2023-03-05T20:32:47.730Z,37.10
2023-03-05T20:35:27.887Z,37.10
2023-03-05T20:38:26.708Z,37.10
2023-03-05T20:41:18.768Z,37.20
2023-03-05T20:44:05.722Z,37.20
2023-03-05T20:46:59.517Z,37.20
2023-03-05T20:49:46.710Z,37.30
2023-03-05T20:52:33.769Z,37.20
2023-03-05T20:55:14.710Z,37.20
2023-03-05T20:58:01.831Z,37.20
2023-03-05T21:00:42.754Z,37.20
2023-03-05T21:03:25.209Z,38.10
2023-03-05T21:06:14.748Z,37.30
2023-03-05T21:09:01.781Z,37.30
2023-03-05T21:11:42.723Z,37.30
2023-03-05T21:14:22.878Z,37.20
2023-03-05T21:17:09.735Z,37.20
2023-03-05T21:19:50.255Z,37.10
2023-03-05T21:22:36.719Z,37.20
2023-03-05T21:25:22.271Z,37.30
2023-03-05T21:28:12.710Z,37.30
2023-03-05T21:30:54.412Z,37.40
2023-03-05T21:33:41.731Z,37.40
2023-03-05T21:36:22.276Z,37.40
2023-03-05T21:39:08.729Z,37.30
2023-03-05T21:41:55.780Z,37.40
2023-03-05T21:44:35.735Z,37.30
2023-03-05T21:47:22.764Z,37.30
2023-03-05T21:50:17.747Z,37.40
2023-03-05T21:52:59.902Z,37.30
2023-03-05T21:56:04.713Z,37.20
2023-03-05T21:58:45.230Z,37.30
2023-03-05T22:01:32.743Z,37.30
2023-03-05T22:04:19.774Z,37.40
2023-03-05T22:06:59.728Z,37.40
2023-03-05T22:09:40.261Z,37.30
2023-03-05T22:12:36.709Z,37.40
2023-03-05T22:15:23.690Z,37.50
2023-03-05T22:18:03.773Z,37.50
2023-03-05T22:20:50.720Z,38.50
2023-03-05T22:23:34.522Z,37.50
2023-03-05T22:26:20.717Z,37.50
2023-03-05T22:29:07.701Z,37.40
2023-03-05T22:31:48.215Z,37.40
2023-03-05T22:34:35.698Z,37.40
2023-03-05T22:37:16.225Z,37.40
2023-03-05T22:40:07.700Z,37.40
2023-03-05T22:42:54.770Z,37.40
2023-03-05T22:45:35.729Z,37.40
2023-03-05T22:48:22.758Z,37.30
2023-03-05T22:51:16.718Z,37.40
2023-03-05T22:54:03.700Z,37.30
2023-03-05T22:56:43.960Z,37.40
2023-03-05T22:59:30.714Z,37.60
2023-03-05T23:02:10.895Z,37.60
2023-03-05T23:05:03.712Z,37.60
2023-03-05T23:07:46.811Z,37.50
2023-03-05T23:10:37.720Z,37.50
2023-03-05T23:13:17.794Z,37.60
2023-03-05T23:16:04.797Z,37.60
2023-03-05T23:18:51.734Z,37.70
2023-03-05T23:21:32.499Z,37.70
2023-03-05T23:24:18.727Z,37.50
2023-03-05T23:27:06.726Z,37.60
2023-03-05T23:30:22.749Z,37.60
2023-03-05T23:33:21.716Z,37.60
2023-03-05T23:36:11.730Z,37.60
2023-03-05T23:38:57.372Z,37.70
2023-03-05T23:41:43.721Z,37.60
2023-03-05T23:44:24.216Z,37.70
2023-03-05T23:47:10.730Z,37.70
2023-03-05T23:50:12.716Z,37.80
2023-03-05T23:53:07.700Z,37.80
2023-03-05T23:55:48.617Z,37.70
2023-03-05T23:58:35.725Z,37.80
